sensor_id;sensor_type;location;lat;lon;timestamp;P1;durP1;ratioP1;P2;durP2;ratioP2
9689;SDS011;4884;42.614;23.340;2022-10-22T00:02:24;7.83;;;6.83;;
9689;SDS011;4884;42.614;23.340;2022-10-22T00:04:51;9.07;;;7.33;;
9689;SDS011;4884;42.614;23.340;2022-10-22T00:07:18;11.27;;;7.40;;
9689;SDS011;4884;42.614;23.340;2022-10-22T00:09:43;7.60;;;6.80;;
9689;SDS011;4884;42.614;23.340;2022-10-22T00:12:09;7.17;;;6.30;;
9689;SDS011;4884;42.614;23.340;2022-10-22T00:14:35;8.53;;;7.67;;
9689;SDS011;4884;42.614;23.340;2022-10-22T00:17:01;9.77;;;7.63;;
9689;SDS011;4884;42.614;23.340;2022-10-22T00:19:26;9.83;;;7.73;;
9689;SDS011;4884;42.614;23.340;2022-10-22T00:21:52;10.67;;;9.57;;
9689;SDS011;4884;42.614;23.340;2022-10-22T00:24:17;10.17;;;7.17;;
9689;SDS011;4884;42.614;23.340;2022-10-22T00:26:43;12.10;;;10.90;;
9689;SDS011;4884;42.614;23.340;2022-10-22T00:29:08;7.70;;;6.97;;
9689;SDS011;4884;42.614;23.340;2022-10-22T00:31:33;9.80;;;8.80;;
9689;SDS011;4884;42.614;23.340;2022-10-22T00:33:59;8.17;;;6.50;;
9689;SDS011;4884;42.614;23.340;2022-10-22T00:36:25;8.50;;;7.50;;
9689;SDS011;4884;42.614;23.340;2022-10-22T00:38:50;11.63;;;9.10;;
9689;SDS011;4884;42.614;23.340;2022-10-22T00:41:15;13.87;;;10.23;;
9689;SDS011;4884;42.614;23.340;2022-10-22T00:43:58;16.57;;;10.00;;
9689;SDS011;4884;42.614;23.340;2022-10-22T00:46:24;15.97;;;10.30;;
9689;SDS011;4884;42.614;23.340;2022-10-22T00:48:50;12.47;;;11.23;;
9689;SDS011;4884;42.614;23.340;2022-10-22T00:51:16;12.27;;;10.73;;
9689;SDS011;4884;42.614;23.340;2022-10-22T00:53:44;10.80;;;8.77;;
9689;SDS011;4884;42.614;23.340;2022-10-22T00:56:13;11.03;;;8.33;;
9689;SDS011;4884;42.614;23.340;2022-10-22T00:58:40;9.17;;;8.20;;
9689;SDS011;4884;42.614;23.340;2022-10-22T01:01:08;12.83;;;8.00;;
9689;SDS011;4884;42.614;23.340;2022-10-22T01:03:38;9.87;;;8.70;;
9689;SDS011;4884;42.614;23.340;2022-10-22T01:06:03;8.50;;;7.27;;
9689;SDS011;4884;42.614;23.340;2022-10-22T01:08:45;17.77;;;10.93;;
9689;SDS011;4884;42.614;23.340;2022-10-22T01:11:21;29.43;;;14.30;;
9689;SDS011;4884;42.614;23.340;2022-10-22T01:16:22;22.43;;;12.93;;
9689;SDS011;4884;42.614;23.340;2022-10-22T01:25:06;15.23;;;13.63;;
9689;SDS011;4884;42.614;23.340;2022-10-22T01:30:07;14.43;;;9.83;;
9689;SDS011;4884;42.614;23.340;2022-10-22T01:32:42;10.37;;;8.90;;
9689;SDS011;4884;42.614;23.340;2022-10-22T01:35:11;11.57;;;9.87;;
9689;SDS011;4884;42.614;23.340;2022-10-22T01:37:41;10.90;;;8.50;;
9689;SDS011;4884;42.614;23.340;2022-10-22T01:40:10;9.23;;;8.03;;
9689;SDS011;4884;42.614;23.340;2022-10-22T01:42:36;10.83;;;8.60;;
9689;SDS011;4884;42.614;23.340;2022-10-22T01:45:01;18.40;;;16.60;;
9689;SDS011;4884;42.614;23.340;2022-10-22T01:47:42;12.67;;;10.13;;
9689;SDS011;4884;42.614;23.340;2022-10-22T01:50:44;15.93;;;12.30;;
9689;SDS011;4884;42.614;23.340;2022-10-22T01:53:36;14.47;;;12.97;;
9689;SDS011;4884;42.614;23.340;2022-10-22T01:58:44;9.87;;;8.87;;
9689;SDS011;4884;42.614;23.340;2022-10-22T02:01:20;13.80;;;9.07;;
9689;SDS011;4884;42.614;23.340;2022-10-22T02:06:19;14.70;;;11.03;;
9689;SDS011;4884;42.614;23.340;2022-10-22T02:08:46;16.73;;;13.07;;
9689;SDS011;4884;42.614;23.340;2022-10-22T02:11:12;17.40;;;12.70;;
9689;SDS011;4884;42.614;23.340;2022-10-22T02:13:43;16.80;;;13.23;;
9689;SDS011;4884;42.614;23.340;2022-10-22T02:16:12;14.17;;;11.17;;
9689;SDS011;4884;42.614;23.340;2022-10-22T02:18:42;11.00;;;9.30;;
9689;SDS011;4884;42.614;23.340;2022-10-22T02:21:09;8.97;;;8.07;;
9689;SDS011;4884;42.614;23.340;2022-10-22T02:23:35;8.13;;;7.27;;
9689;SDS011;4884;42.614;23.340;2022-10-22T02:26:02;14.67;;;11.80;;
9689;SDS011;4884;42.614;23.340;2022-10-22T02:28:35;14.40;;;11.20;;
9689;SDS011;4884;42.614;23.340;2022-10-22T02:31:10;17.13;;;11.80;;
9689;SDS011;4884;42.614;23.340;2022-10-22T02:33:41;14.20;;;11.23;;
9689;SDS011;4884;42.614;23.340;2022-10-22T02:36:10;13.33;;;10.47;;
9689;SDS011;4884;42.614;23.340;2022-10-22T02:38:35;16.43;;;11.60;;
9689;SDS011;4884;42.614;23.340;2022-10-22T02:41:01;10.80;;;8.70;;
9689;SDS011;4884;42.614;23.340;2022-10-22T02:43:27;11.97;;;10.20;;
9689;SDS011;4884;42.614;23.340;2022-10-22T02:45:53;11.70;;;10.40;;
9689;SDS011;4884;42.614;23.340;2022-10-22T02:48:18;16.30;;;12.10;;
9689;SDS011;4884;42.614;23.340;2022-10-22T02:50:44;13.57;;;11.80;;
9689;SDS011;4884;42.614;23.340;2022-10-22T02:53:09;13.53;;;10.80;;
9689;SDS011;4884;42.614;23.340;2022-10-22T02:55:34;12.83;;;11.47;;
9689;SDS011;4884;42.614;23.340;2022-10-22T02:58:00;13.20;;;11.80;;
9689;SDS011;4884;42.614;23.340;2022-10-22T03:00:25;16.30;;;13.13;;
9689;SDS011;4884;42.614;23.340;2022-10-22T03:02:51;14.70;;;10.83;;
9689;SDS011;4884;42.614;23.340;2022-10-22T03:05:16;12.17;;;8.17;;
9689;SDS011;4884;42.614;23.340;2022-10-22T03:07:41;27.27;;;16.47;;
9689;SDS011;4884;42.614;23.340;2022-10-22T03:10:07;13.87;;;11.17;;
9689;SDS011;4884;42.614;23.340;2022-10-22T03:12:32;17.00;;;11.83;;
9689;SDS011;4884;42.614;23.340;2022-10-22T03:14:58;14.93;;;12.17;;
9689;SDS011;4884;42.614;23.340;2022-10-22T03:17:23;14.40;;;12.23;;
9689;SDS011;4884;42.614;23.340;2022-10-22T03:19:49;11.47;;;8.10;;
9689;SDS011;4884;42.614;23.340;2022-10-22T03:22:16;11.30;;;9.77;;
9689;SDS011;4884;42.614;23.340;2022-10-22T03:24:45;9.73;;;8.30;;
9689;SDS011;4884;42.614;23.340;2022-10-22T03:27:13;15.23;;;13.73;;
9689;SDS011;4884;42.614;23.340;2022-10-22T03:29:39;9.97;;;7.90;;
9689;SDS011;4884;42.614;23.340;2022-10-22T03:32:05;11.90;;;8.93;;
9689;SDS011;4884;42.614;23.340;2022-10-22T03:34:31;9.33;;;8.43;;
9689;SDS011;4884;42.614;23.340;2022-10-22T03:36:57;11.10;;;9.53;;
9689;SDS011;4884;42.614;23.340;2022-10-22T03:39:24;13.37;;;10.90;;
9689;SDS011;4884;42.614;23.340;2022-10-22T03:41:50;16.27;;;9.37;;
9689;SDS011;4884;42.614;23.340;2022-10-22T03:44:16;15.67;;;9.50;;
9689;SDS011;4884;42.614;23.340;2022-10-22T03:46:42;10.40;;;8.80;;
9689;SDS011;4884;42.614;23.340;2022-10-22T03:49:07;14.33;;;9.80;;
9689;SDS011;4884;42.614;23.340;2022-10-22T03:51:33;12.67;;;10.00;;
9689;SDS011;4884;42.614;23.340;2022-10-22T03:53:59;7.90;;;7.20;;
9689;SDS011;4884;42.614;23.340;2022-10-22T03:56:25;10.37;;;8.23;;
9689;SDS011;4884;42.614;23.340;2022-10-22T03:58:50;13.20;;;11.57;;
9689;SDS011;4884;42.614;23.340;2022-10-22T04:01:20;11.50;;;9.13;;
9689;SDS011;4884;42.614;23.340;2022-10-22T04:03:45;11.47;;;9.50;;
9689;SDS011;4884;42.614;23.340;2022-10-22T04:06:11;16.67;;;13.13;;
9689;SDS011;4884;42.614;23.340;2022-10-22T04:08:40;12.83;;;11.10;;
9689;SDS011;4884;42.614;23.340;2022-10-22T04:11:08;13.57;;;10.33;;
9689;SDS011;4884;42.614;23.340;2022-10-22T04:13:34;13.80;;;11.20;;
9689;SDS011;4884;42.614;23.340;2022-10-22T04:16:32;17.87;;;11.77;;
9689;SDS011;4884;42.614;23.340;2022-10-22T04:18:55;19.47;;;12.57;;
9689;SDS011;4884;42.614;23.340;2022-10-22T04:21:21;14.40;;;10.87;;
9689;SDS011;4884;42.614;23.340;2022-10-22T04:23:47;14.00;;;10.60;;
9689;SDS011;4884;42.614;23.340;2022-10-22T04:26:14;14.93;;;11.23;;
9689;SDS011;4884;42.614;23.340;2022-10-22T04:28:40;13.90;;;10.80;;
9689;SDS011;4884;42.614;23.340;2022-10-22T04:31:06;21.07;;;15.00;;
9689;SDS011;4884;42.614;23.340;2022-10-22T04:33:33;17.13;;;13.23;;
9689;SDS011;4884;42.614;23.340;2022-10-22T04:35:58;11.80;;;10.43;;
9689;SDS011;4884;42.614;23.340;2022-10-22T04:38:24;13.77;;;10.23;;
9689;SDS011;4884;42.614;23.340;2022-10-22T04:40:49;15.93;;;11.30;;
9689;SDS011;4884;42.614;23.340;2022-10-22T04:43:14;13.70;;;9.70;;
9689;SDS011;4884;42.614;23.340;2022-10-22T04:45:40;14.97;;;9.43;;
9689;SDS011;4884;42.614;23.340;2022-10-22T04:48:05;12.33;;;8.77;;
9689;SDS011;4884;42.614;23.340;2022-10-22T04:50:31;12.27;;;8.90;;
9689;SDS011;4884;42.614;23.340;2022-10-22T04:52:56;11.67;;;10.47;;
9689;SDS011;4884;42.614;23.340;2022-10-22T04:55:22;15.57;;;11.00;;
9689;SDS011;4884;42.614;23.340;2022-10-22T04:57:47;15.17;;;11.43;;
9689;SDS011;4884;42.614;23.340;2022-10-22T05:00:13;12.37;;;11.17;;
9689;SDS011;4884;42.614;23.340;2022-10-22T05:02:40;14.93;;;11.37;;
9689;SDS011;4884;42.614;23.340;2022-10-22T05:05:08;18.00;;;14.37;;
9689;SDS011;4884;42.614;23.340;2022-10-22T05:07:34;21.47;;;15.93;;
9689;SDS011;4884;42.614;23.340;2022-10-22T05:09:59;17.83;;;12.83;;
9689;SDS011;4884;42.614;23.340;2022-10-22T05:12:26;18.30;;;13.00;;
9689;SDS011;4884;42.614;23.340;2022-10-22T05:14:53;19.20;;;14.50;;
9689;SDS011;4884;42.614;23.340;2022-10-22T05:17:20;16.47;;;13.73;;
9689;SDS011;4884;42.614;23.340;2022-10-22T05:19:45;19.80;;;15.87;;
9689;SDS011;4884;42.614;23.340;2022-10-22T05:22:10;24.43;;;18.60;;
9689;SDS011;4884;42.614;23.340;2022-10-22T05:24:36;22.93;;;18.10;;
9689;SDS011;4884;42.614;23.340;2022-10-22T05:27:01;33.47;;;21.07;;
9689;SDS011;4884;42.614;23.340;2022-10-22T05:29:27;28.97;;;22.07;;
9689;SDS011;4884;42.614;23.340;2022-10-22T05:31:52;35.07;;;22.90;;
9689;SDS011;4884;42.614;23.340;2022-10-22T05:34:18;28.60;;;21.10;;
9689;SDS011;4884;42.614;23.340;2022-10-22T05:36:44;27.57;;;20.80;;
9689;SDS011;4884;42.614;23.340;2022-10-22T05:39:10;27.27;;;21.60;;
9689;SDS011;4884;42.614;23.340;2022-10-22T05:41:36;31.47;;;21.53;;
9689;SDS011;4884;42.614;23.340;2022-10-22T05:44:01;29.07;;;21.63;;
9689;SDS011;4884;42.614;23.340;2022-10-22T05:46:28;27.10;;;21.17;;
9689;SDS011;4884;42.614;23.340;2022-10-22T05:48:55;32.23;;;22.07;;
9689;SDS011;4884;42.614;23.340;2022-10-22T05:51:23;30.60;;;21.47;;
9689;SDS011;4884;42.614;23.340;2022-10-22T05:53:53;26.97;;;21.13;;
9689;SDS011;4884;42.614;23.340;2022-10-22T05:56:20;31.90;;;23.73;;
9689;SDS011;4884;42.614;23.340;2022-10-22T05:58:46;27.73;;;20.83;;
9689;SDS011;4884;42.614;23.340;2022-10-22T06:01:13;32.30;;;22.50;;
9689;SDS011;4884;42.614;23.340;2022-10-22T06:03:45;23.80;;;19.07;;
9689;SDS011;4884;42.614;23.340;2022-10-22T06:06:16;25.93;;;19.30;;
9689;SDS011;4884;42.614;23.340;2022-10-22T06:08:45;25.27;;;20.63;;
9689;SDS011;4884;42.614;23.340;2022-10-22T06:11:11;31.03;;;21.33;;
9689;SDS011;4884;42.614;23.340;2022-10-22T06:13:37;34.33;;;23.90;;
9689;SDS011;4884;42.614;23.340;2022-10-22T06:16:02;29.43;;;22.77;;
9689;SDS011;4884;42.614;23.340;2022-10-22T06:18:28;36.13;;;27.33;;
9689;SDS011;4884;42.614;23.340;2022-10-22T06:20:53;38.80;;;27.67;;
9689;SDS011;4884;42.614;23.340;2022-10-22T06:23:19;33.47;;;26.13;;
9689;SDS011;4884;42.614;23.340;2022-10-22T06:25:54;34.60;;;27.10;;
9689;SDS011;4884;42.614;23.340;2022-10-22T06:28:20;38.60;;;27.60;;
9689;SDS011;4884;42.614;23.340;2022-10-22T06:30:45;39.80;;;28.60;;
9689;SDS011;4884;42.614;23.340;2022-10-22T06:33:10;35.00;;;24.97;;
9689;SDS011;4884;42.614;23.340;2022-10-22T06:35:36;32.90;;;23.90;;
9689;SDS011;4884;42.614;23.340;2022-10-22T06:38:01;29.57;;;23.63;;
9689;SDS011;4884;42.614;23.340;2022-10-22T06:40:27;31.03;;;22.20;;
9689;SDS011;4884;42.614;23.340;2022-10-22T06:42:52;29.07;;;21.80;;
9689;SDS011;4884;42.614;23.340;2022-10-22T06:45:17;37.20;;;25.63;;
9689;SDS011;4884;42.614;23.340;2022-10-22T06:47:43;28.47;;;22.83;;
9689;SDS011;4884;42.614;23.340;2022-10-22T06:50:08;37.87;;;26.23;;
9689;SDS011;4884;42.614;23.340;2022-10-22T06:52:34;31.90;;;24.97;;
9689;SDS011;4884;42.614;23.340;2022-10-22T06:54:59;33.03;;;26.03;;
9689;SDS011;4884;42.614;23.340;2022-10-22T06:57:24;34.33;;;25.23;;
9689;SDS011;4884;42.614;23.340;2022-10-22T06:59:50;30.07;;;25.07;;
9689;SDS011;4884;42.614;23.340;2022-10-22T07:02:15;28.67;;;23.93;;
9689;SDS011;4884;42.614;23.340;2022-10-22T07:04:40;35.97;;;24.67;;
9689;SDS011;4884;42.614;23.340;2022-10-22T07:07:06;36.07;;;24.67;;
9689;SDS011;4884;42.614;23.340;2022-10-22T07:09:31;31.30;;;22.70;;
9689;SDS011;4884;42.614;23.340;2022-10-22T07:11:57;25.50;;;21.40;;
9689;SDS011;4884;42.614;23.340;2022-10-22T07:14:22;28.03;;;22.97;;
9689;SDS011;4884;42.614;23.340;2022-10-22T07:16:47;26.53;;;21.10;;
9689;SDS011;4884;42.614;23.340;2022-10-22T07:19:13;26.30;;;21.33;;
9689;SDS011;4884;42.614;23.340;2022-10-22T07:21:38;29.07;;;23.13;;
9689;SDS011;4884;42.614;23.340;2022-10-22T07:24:04;30.03;;;22.30;;
9689;SDS011;4884;42.614;23.340;2022-10-22T07:26:30;26.10;;;22.97;;
9689;SDS011;4884;42.614;23.340;2022-10-22T07:28:57;28.93;;;23.47;;
9689;SDS011;4884;42.614;23.340;2022-10-22T07:31:25;25.87;;;21.30;;
9689;SDS011;4884;42.614;23.340;2022-10-22T07:33:51;25.00;;;22.07;;
9689;SDS011;4884;42.614;23.340;2022-10-22T07:36:16;28.43;;;20.57;;
9689;SDS011;4884;42.614;23.340;2022-10-22T07:38:42;34.30;;;21.67;;
9689;SDS011;4884;42.614;23.340;2022-10-22T07:41:12;27.03;;;20.23;;
9689;SDS011;4884;42.614;23.340;2022-10-22T07:43:38;22.50;;;20.20;;
9689;SDS011;4884;42.614;23.340;2022-10-22T07:46:04;25.87;;;19.93;;
9689;SDS011;4884;42.614;23.340;2022-10-22T07:48:29;27.80;;;21.57;;
9689;SDS011;4884;42.614;23.340;2022-10-22T07:50:55;27.67;;;21.47;;
9689;SDS011;4884;42.614;23.340;2022-10-22T07:53:22;27.03;;;21.67;;
9689;SDS011;4884;42.614;23.340;2022-10-22T07:55:48;27.97;;;20.43;;
9689;SDS011;4884;42.614;23.340;2022-10-22T07:58:15;21.50;;;19.27;;
9689;SDS011;4884;42.614;23.340;2022-10-22T08:00:43;24.07;;;18.83;;
9689;SDS011;4884;42.614;23.340;2022-10-22T08:03:12;21.87;;;17.40;;
9689;SDS011;4884;42.614;23.340;2022-10-22T08:05:38;18.67;;;16.70;;
9689;SDS011;4884;42.614;23.340;2022-10-22T08:08:05;23.43;;;18.40;;
9689;SDS011;4884;42.614;23.340;2022-10-22T08:10:31;25.33;;;19.63;;
9689;SDS011;4884;42.614;23.340;2022-10-22T08:12:57;22.30;;;18.60;;
9689;SDS011;4884;42.614;23.340;2022-10-22T08:15:22;24.13;;;18.90;;
9689;SDS011;4884;42.614;23.340;2022-10-22T08:17:49;28.33;;;19.00;;
9689;SDS011;4884;42.614;23.340;2022-10-22T08:20:15;18.73;;;16.77;;
9689;SDS011;4884;42.614;23.340;2022-10-22T08:22:41;20.67;;;18.47;;
9689;SDS011;4884;42.614;23.340;2022-10-22T08:25:06;19.67;;;17.10;;
9689;SDS011;4884;42.614;23.340;2022-10-22T08:27:32;22.60;;;18.20;;
9689;SDS011;4884;42.614;23.340;2022-10-22T08:29:57;21.00;;;17.67;;
9689;SDS011;4884;42.614;23.340;2022-10-22T08:32:23;19.37;;;17.40;;
9689;SDS011;4884;42.614;23.340;2022-10-22T08:34:48;21.33;;;19.07;;
9689;SDS011;4884;42.614;23.340;2022-10-22T08:37:14;21.13;;;18.83;;
9689;SDS011;4884;42.614;23.340;2022-10-22T08:39:41;22.90;;;20.37;;
9689;SDS011;4884;42.614;23.340;2022-10-22T08:47:47;29.27;;;20.07;;
9689;SDS011;4884;42.614;23.340;2022-10-22T08:53:02;24.43;;;19.20;;
9689;SDS011;4884;42.614;23.340;2022-10-22T08:55:29;20.13;;;18.13;;
9689;SDS011;4884;42.614;23.340;2022-10-22T08:57:58;24.00;;;19.23;;
9689;SDS011;4884;42.614;23.340;2022-10-22T09:00:30;24.87;;;17.50;;
9689;SDS011;4884;42.614;23.340;2022-10-22T09:05:49;24.33;;;16.40;;
9689;SDS011;4884;42.614;23.340;2022-10-22T09:08:18;19.13;;;16.75;;
9689;SDS011;4884;42.614;23.340;2022-10-22T09:10:52;19.80;;;17.95;;
9689;SDS011;4884;42.614;23.340;2022-10-22T09:13:25;21.77;;;17.70;;
9689;SDS011;4884;42.614;23.340;2022-10-22T09:16:00;24.07;;;17.63;;
9689;SDS011;4884;42.614;23.340;2022-10-22T09:18:40;23.63;;;19.35;;
9689;SDS011;4884;42.614;23.340;2022-10-22T09:26:13;20.33;;;18.30;;
9689;SDS011;4884;42.614;23.340;2022-10-22T09:28:39;23.67;;;18.30;;
9689;SDS011;4884;42.614;23.340;2022-10-22T09:31:12;20.60;;;18.50;;
9689;SDS011;4884;42.614;23.340;2022-10-22T09:33:39;23.23;;;20.10;;
9689;SDS011;4884;42.614;23.340;2022-10-22T09:36:05;20.67;;;18.47;;
9689;SDS011;4884;42.614;23.340;2022-10-22T09:38:48;19.73;;;17.60;;
9689;SDS011;4884;42.614;23.340;2022-10-22T09:41:15;20.87;;;18.77;;
9689;SDS011;4884;42.614;23.340;2022-10-22T09:43:42;22.67;;;19.40;;
9689;SDS011;4884;42.614;23.340;2022-10-22T09:46:13;21.33;;;19.13;;
9689;SDS011;4884;42.614;23.340;2022-10-22T09:48:42;21.67;;;19.43;;
9689;SDS011;4884;42.614;23.340;2022-10-22T09:51:14;21.02;;;18.88;;
9689;SDS011;4884;42.614;23.340;2022-10-22T09:53:44;21.10;;;18.90;;
9689;SDS011;4884;42.614;23.340;2022-10-22T09:56:27;26.40;;;19.48;;
9689;SDS011;4884;42.614;23.340;2022-10-22T09:58:56;25.38;;;19.33;;
9689;SDS011;4884;42.614;23.340;2022-10-22T10:01:29;24.58;;;20.95;;
9689;SDS011;4884;42.614;23.340;2022-10-22T10:04:03;23.88;;;21.33;;
9689;SDS011;4884;42.614;23.340;2022-10-22T10:06:31;24.00;;;20.50;;
9689;SDS011;4884;42.614;23.340;2022-10-22T10:08:57;26.90;;;19.17;;
9689;SDS011;4884;42.614;23.340;2022-10-22T10:11:27;24.95;;;18.80;;
9689;SDS011;4884;42.614;23.340;2022-10-22T10:17:24;24.55;;;20.27;;
9689;SDS011;4884;42.614;23.340;2022-10-22T10:30:05;26.35;;;20.48;;
9689;SDS011;4884;42.614;23.340;2022-10-22T10:35:15;22.67;;;20.37;;
9689;SDS011;4884;42.614;23.340;2022-10-22T10:40:46;21.57;;;19.27;;
9689;SDS011;4884;42.614;23.340;2022-10-22T10:43:16;21.37;;;19.07;;
9689;SDS011;4884;42.614;23.340;2022-10-22T10:53:59;21.83;;;17.90;;
9689;SDS011;4884;42.614;23.340;2022-10-22T10:56:27;21.67;;;18.97;;
9689;SDS011;4884;42.614;23.340;2022-10-22T11:07:08;25.80;;;18.85;;
9689;SDS011;4884;42.614;23.340;2022-10-22T11:09:46;22.27;;;18.63;;
9689;SDS011;4884;42.614;23.340;2022-10-22T11:12:37;19.15;;;16.40;;
9689;SDS011;4884;42.614;23.340;2022-10-22T11:15:22;19.40;;;16.90;;
9689;SDS011;4884;42.614;23.340;2022-10-22T11:17:49;20.58;;;16.67;;
9689;SDS011;4884;42.614;23.340;2022-10-22T11:20:17;20.27;;;16.73;;
9689;SDS011;4884;42.614;23.340;2022-10-22T11:22:47;17.67;;;15.07;;
9689;SDS011;4884;42.614;23.340;2022-10-22T11:25:16;20.35;;;16.98;;
9689;SDS011;4884;42.614;23.340;2022-10-22T11:27:56;20.95;;;16.08;;
9689;SDS011;4884;42.614;23.340;2022-10-22T11:30:29;18.23;;;16.13;;
9689;SDS011;4884;42.614;23.340;2022-10-22T11:32:59;20.02;;;16.55;;
9689;SDS011;4884;42.614;23.340;2022-10-22T11:35:29;20.05;;;16.13;;
9689;SDS011;4884;42.614;23.340;2022-10-22T11:37:56;17.33;;;15.57;;
9689;SDS011;4884;42.614;23.340;2022-10-22T11:42:57;15.50;;;13.82;;
9689;SDS011;4884;42.614;23.340;2022-10-22T11:45:30;32.47;;;22.67;;
9689;SDS011;4884;42.614;23.340;2022-10-22T11:48:05;14.00;;;12.50;;
9689;SDS011;4884;42.614;23.340;2022-10-22T12:19:23;17.63;;;15.80;;
9689;SDS011;4884;42.614;23.340;2022-10-22T12:21:51;48.10;;;30.65;;
9689;SDS011;4884;42.614;23.340;2022-10-22T12:24:40;19.45;;;16.00;;
9689;SDS011;4884;42.614;23.340;2022-10-22T12:29:48;19.23;;;16.45;;
9689;SDS011;4884;42.614;23.340;2022-10-22T12:32:17;27.88;;;19.58;;
9689;SDS011;4884;42.614;23.340;2022-10-22T12:34:47;19.30;;;17.02;;
9689;SDS011;4884;42.614;23.340;2022-10-22T12:37:14;28.42;;;19.77;;
9689;SDS011;4884;42.614;23.340;2022-10-22T12:39:40;22.25;;;19.08;;
9689;SDS011;4884;42.614;23.340;2022-10-22T12:42:06;19.42;;;15.95;;
9689;SDS011;4884;42.614;23.340;2022-10-22T12:44:34;68.93;;;43.03;;
9689;SDS011;4884;42.614;23.340;2022-10-22T12:47:00;52.22;;;28.95;;
9689;SDS011;4884;42.614;23.340;2022-10-22T12:49:39;24.38;;;18.33;;
9689;SDS011;4884;42.614;23.340;2022-10-22T12:52:06;21.65;;;17.13;;
9689;SDS011;4884;42.614;23.340;2022-10-22T12:54:37;17.50;;;15.57;;
9689;SDS011;4884;42.614;23.340;2022-10-22T12:57:04;19.50;;;16.10;;
9689;SDS011;4884;42.614;23.340;2022-10-22T13:01:57;49.00;;;38.08;;
9689;SDS011;4884;42.614;23.340;2022-10-22T13:09:37;19.65;;;16.42;;
9689;SDS011;4884;42.614;23.340;2022-10-22T13:12:08;91.05;;;58.75;;
9689;SDS011;4884;42.614;23.340;2022-10-22T13:14:40;39.50;;;28.60;;
9689;SDS011;4884;42.614;23.340;2022-10-22T13:19:45;19.73;;;17.03;;
9689;SDS011;4884;42.614;23.340;2022-10-22T13:22:33;19.50;;;13.23;;
9689;SDS011;4884;42.614;23.340;2022-10-22T13:25:25;18.80;;;14.00;;
9689;SDS011;4884;42.614;23.340;2022-10-22T13:28:34;16.57;;;14.87;;
9689;SDS011;4884;42.614;23.340;2022-10-22T13:30:51;24.67;;;20.17;;
9689;SDS011;4884;42.614;23.340;2022-10-22T13:33:24;24.10;;;19.00;;
9689;SDS011;4884;42.614;23.340;2022-10-22T13:35:54;14.87;;;12.67;;
9689;SDS011;4884;42.614;23.340;2022-10-22T13:38:22;16.20;;;12.37;;
9689;SDS011;4884;42.614;23.340;2022-10-22T13:40:48;14.40;;;11.77;;
9689;SDS011;4884;42.614;23.340;2022-10-22T13:43:14;13.73;;;12.23;;
9689;SDS011;4884;42.614;23.340;2022-10-22T13:45:40;13.83;;;12.37;;
9689;SDS011;4884;42.614;23.340;2022-10-22T13:48:07;16.40;;;11.67;;
9689;SDS011;4884;42.614;23.340;2022-10-22T13:50:41;13.77;;;11.70;;
9689;SDS011;4884;42.614;23.340;2022-10-22T13:53:08;13.10;;;11.63;;
9689;SDS011;4884;42.614;23.340;2022-10-22T13:55:40;17.27;;;13.63;;
9689;SDS011;4884;42.614;23.340;2022-10-22T13:58:08;14.30;;;12.93;;
9689;SDS011;4884;42.614;23.340;2022-10-22T14:00:37;15.10;;;12.50;;
9689;SDS011;4884;42.614;23.340;2022-10-22T14:03:03;22.23;;;15.00;;
9689;SDS011;4884;42.614;23.340;2022-10-22T14:05:29;27.00;;;24.20;;
9689;SDS011;4884;42.614;23.340;2022-10-22T14:07:58;27.30;;;22.93;;
9689;SDS011;4884;42.614;23.340;2022-10-22T14:10:24;25.13;;;22.23;;
9689;SDS011;4884;42.614;23.340;2022-10-22T14:12:50;20.83;;;18.73;;
9689;SDS011;4884;42.614;23.340;2022-10-22T14:15:17;19.60;;;17.63;;
9689;SDS011;4884;42.614;23.340;2022-10-22T14:17:45;15.47;;;12.57;;
9689;SDS011;4884;42.614;23.340;2022-10-22T14:20:24;16.13;;;14.30;;
9689;SDS011;4884;42.614;23.340;2022-10-22T14:22:50;20.83;;;15.40;;
9689;SDS011;4884;42.614;23.340;2022-10-22T14:25:18;22.03;;;17.43;;
9689;SDS011;4884;42.614;23.340;2022-10-22T14:27:45;35.73;;;26.57;;
9689;SDS011;4884;42.614;23.340;2022-10-22T14:30:15;23.17;;;20.00;;
9689;SDS011;4884;42.614;23.340;2022-10-22T14:32:41;24.37;;;20.17;;
9689;SDS011;4884;42.614;23.340;2022-10-22T14:35:08;22.53;;;19.27;;
9689;SDS011;4884;42.614;23.340;2022-10-22T14:37:36;19.87;;;13.67;;
9689;SDS011;4884;42.614;23.340;2022-10-22T14:40:01;26.80;;;19.20;;
9689;SDS011;4884;42.614;23.340;2022-10-22T14:42:27;33.23;;;25.87;;
9689;SDS011;4884;42.614;23.340;2022-10-22T14:44:53;22.10;;;16.93;;
9689;SDS011;4884;42.614;23.340;2022-10-22T14:47:18;26.07;;;18.30;;
9689;SDS011;4884;42.614;23.340;2022-10-22T14:49:43;25.17;;;18.90;;
9689;SDS011;4884;42.614;23.340;2022-10-22T14:52:09;14.63;;;13.13;;
9689;SDS011;4884;42.614;23.340;2022-10-22T14:54:34;15.97;;;14.47;;
9689;SDS011;4884;42.614;23.340;2022-10-22T14:57:00;16.57;;;13.23;;
9689;SDS011;4884;42.614;23.340;2022-10-22T14:59:27;15.90;;;10.37;;
9689;SDS011;4884;42.614;23.340;2022-10-22T15:01:52;21.80;;;16.13;;
9689;SDS011;4884;42.614;23.340;2022-10-22T15:04:18;18.20;;;11.87;;
9689;SDS011;4884;42.614;23.340;2022-10-22T15:06:43;19.90;;;11.50;;
9689;SDS011;4884;42.614;23.340;2022-10-22T15:09:08;15.00;;;11.00;;
9689;SDS011;4884;42.614;23.340;2022-10-22T15:11:34;16.47;;;12.87;;
9689;SDS011;4884;42.614;23.340;2022-10-22T15:13:59;27.60;;;21.57;;
9689;SDS011;4884;42.614;23.340;2022-10-22T15:16:24;28.47;;;21.00;;
9689;SDS011;4884;42.614;23.340;2022-10-22T15:18:50;25.70;;;20.70;;
9689;SDS011;4884;42.614;23.340;2022-10-22T15:21:18;28.60;;;25.73;;
9689;SDS011;4884;42.614;23.340;2022-10-22T15:23:44;26.93;;;23.33;;
9689;SDS011;4884;42.614;23.340;2022-10-22T15:26:10;26.73;;;20.80;;
9689;SDS011;4884;42.614;23.340;2022-10-22T15:28:37;12.37;;;11.07;;
9689;SDS011;4884;42.614;23.340;2022-10-22T15:31:03;15.97;;;12.37;;
9689;SDS011;4884;42.614;23.340;2022-10-22T15:33:29;13.40;;;10.83;;
9689;SDS011;4884;42.614;23.340;2022-10-22T15:35:54;17.27;;;14.03;;
9689;SDS011;4884;42.614;23.340;2022-10-22T15:38:20;24.80;;;19.70;;
9689;SDS011;4884;42.614;23.340;2022-10-22T15:40:47;24.10;;;18.73;;
9689;SDS011;4884;42.614;23.340;2022-10-22T15:43:12;19.10;;;15.70;;
9689;SDS011;4884;42.614;23.340;2022-10-22T15:45:38;18.20;;;14.00;;
9689;SDS011;4884;42.614;23.340;2022-10-22T15:48:04;17.40;;;15.60;;
9689;SDS011;4884;42.614;23.340;2022-10-22T15:50:29;21.00;;;18.77;;
9689;SDS011;4884;42.614;23.340;2022-10-22T15:52:55;15.43;;;13.30;;
9689;SDS011;4884;42.614;23.340;2022-10-22T15:55:20;21.43;;;19.27;;
9689;SDS011;4884;42.614;23.340;2022-10-22T15:57:46;14.57;;;13.00;;
9689;SDS011;4884;42.614;23.340;2022-10-22T16:00:12;14.83;;;9.97;;
9689;SDS011;4884;42.614;23.340;2022-10-22T16:02:37;19.93;;;15.47;;
9689;SDS011;4884;42.614;23.340;2022-10-22T16:05:03;16.73;;;12.57;;
9689;SDS011;4884;42.614;23.340;2022-10-22T16:07:29;18.93;;;13.50;;
9689;SDS011;4884;42.614;23.340;2022-10-22T16:09:58;17.43;;;12.47;;
9689;SDS011;4884;42.614;23.340;2022-10-22T16:12:24;17.50;;;15.63;;
9689;SDS011;4884;42.614;23.340;2022-10-22T16:14:50;28.30;;;17.37;;
9689;SDS011;4884;42.614;23.340;2022-10-22T16:17:15;18.90;;;16.90;;
9689;SDS011;4884;42.614;23.340;2022-10-22T16:19:41;23.67;;;17.93;;
9689;SDS011;4884;42.614;23.340;2022-10-22T16:22:07;17.07;;;11.57;;
9689;SDS011;4884;42.614;23.340;2022-10-22T16:24:35;15.87;;;11.33;;
9689;SDS011;4884;42.614;23.340;2022-10-22T16:27:04;14.50;;;11.67;;
9689;SDS011;4884;42.614;23.340;2022-10-22T16:29:29;14.07;;;10.87;;
9689;SDS011;4884;42.614;23.340;2022-10-22T16:31:55;12.70;;;11.10;;
9689;SDS011;4884;42.614;23.340;2022-10-22T16:34:20;20.57;;;12.67;;
9689;SDS011;4884;42.614;23.340;2022-10-22T16:36:46;43.40;;;25.13;;